Terminal Aerodrome Forecast
Issued by NWS

Home | Current Version | Previous Version | Text Only | Print | Product List | Glossary On
Versions: 1 2 3 4 5 6 7 8 9 10 11 12 13 14 15 16 17 18 19 20 21 22 23 24 25 26 27 28 29 30 31 32
000
FTUS43 KFGF 251143 AAB
TAFTVF
TAF AMD
KTVF 251143Z 2512/2612 32009KT P6SM FEW120
     FM251600 33013KT P6SM SCT100
     FM251800 33012KT P6SM BKN040
     FM252300 33012KT P6SM SCT090
     FM260200 33007KT P6SM SCT150=

USA.gov is the U.S. government's official web portal to all federal, state and local government web resources and services.